Time;durP1;ratioP1;P1;durP2;ratioP2;P2;SDS_P1;SDS_P2;PMS_P1;PMS_P2;Temp;Humidity;BMP_temperature;BMP_pressure;BME280_temperature;BME280_humidity;BME280_pressure;Samples;Min_cycle;Max_cycle;Signal;HPM_P1;HPM_P2
2023/09/28 00:02:23;;;;;;;4.75;1.20;;;;;;;;;;5281731;28;20025;-76
2023/09/28 00:04:54;;;;;;;3.67;1.48;;;;;;;;;;5280657;28;20016;-76
2023/09/28 00:07:25;;;;;;;2.65;1.02;;;;;;;;;;5281325;28;20029;-76
2023/09/28 00:09:57;;;;;;;5.20;0.80;;;;;;;;;;5281221;28;20099;-76
2023/09/28 00:12:28;;;;;;;2.85;0.80;;;;;;;;;;5280545;28;20540;-76
2023/09/28 00:14:59;;;;;;;2.10;0.80;;;;;;;;;;5281075;28;20427;-76
2023/09/28 00:17:32;;;;;;;3.17;0.90;;;;;;;;;;5281551;28;20107;-76
2023/09/28 00:20:06;;;;;;;2.83;0.90;;;;;;;;;;5280645;28;20016;-76
2023/09/28 00:22:37;;;;;;;1.90;0.85;;;;;;;;;;5281233;28;20379;-76
2023/09/28 00:25:11;;;;;;;1.88;0.85;;;;;;;;;;5281163;28;20023;-76
2023/09/28 00:28:02;;;;;;;2.35;0.80;;;;;;;;;;5280126;28;20017;-76
2023/09/28 00:30:33;;;;;;;2.92;1.00;;;;;;;;;;5280939;28;20057;-76
2023/09/28 00:33:04;;;;;;;3.22;0.85;;;;;;;;;;5280422;28;20397;-76
2023/09/28 00:35:35;;;;;;;3.85;0.90;;;;;;;;;;5281073;28;20039;-76
2023/09/28 00:38:07;;;;;;;3.00;0.80;;;;;;;;;;5280990;28;20024;-76
2023/09/28 00:40:39;;;;;;;3.78;0.98;;;;;;;;;;5280228;28;20432;-76
2023/09/28 00:43:11;;;;;;;1.60;0.80;;;;;;;;;;5281184;28;20020;-76
2023/09/28 00:45:42;;;;;;;2.05;0.70;;;;;;;;;;5281138;28;20667;-76
2023/09/28 00:48:13;;;;;;;3.25;1.10;;;;;;;;;;5280226;28;20107;-76
2023/09/28 00:50:45;;;;;;;4.22;1.10;;;;;;;;;;5280686;28;20024;-76
2023/09/28 00:53:16;;;;;;;3.65;0.90;;;;;;;;;;5281383;28;20382;-76
2023/09/28 00:55:48;;;;;;;1.90;0.80;;;;;;;;;;5281568;28;20024;-76
2023/09/28 00:58:23;;;;;;;3.03;1.10;;;;;;;;;;5284982;28;20023;-76
2023/09/28 01:00:54;;;;;;;2.03;1.00;;;;;;;;;;5283823;28;20371;-76
2023/09/28 01:03:27;;;;;;;2.00;1.00;;;;;;;;;;5284774;28;20071;-77
2023/09/28 01:05:58;;;;;;;1.50;0.73;;;;;;;;;;5284614;28;20039;-76
2023/09/28 01:08:29;;;;;;;3.15;0.80;;;;;;;;;;5283759;28;20016;-76
2023/09/28 01:11:04;;;;;;;3.33;0.80;;;;;;;;;;5284389;28;20025;-76
2023/09/28 01:13:38;;;;;;;2.78;0.77;;;;;;;;;;5284202;28;20016;-76
2023/09/28 01:16:10;;;;;;;2.22;0.95;;;;;;;;;;5283654;28;20024;-76
2023/09/28 01:18:41;;;;;;;2.85;1.02;;;;;;;;;;5284283;28;20017;-76
2023/09/28 01:21:12;;;;;;;2.00;1.00;;;;;;;;;;5284192;28;20382;-75
2023/09/28 01:23:45;;;;;;;2.78;1.00;;;;;;;;;;5283366;28;20020;-75
2023/09/28 01:26:16;;;;;;;1.70;0.80;;;;;;;;;;5284713;28;20023;-76
2023/09/28 01:28:47;;;;;;;2.00;0.75;;;;;;;;;;5283931;28;20021;-76
2023/09/28 01:31:19;;;;;;;3.28;1.30;;;;;;;;;;5283594;28;20076;-76
2023/09/28 01:33:50;;;;;;;3.05;0.90;;;;;;;;;;5283769;28;20024;-76
2023/09/28 01:36:21;;;;;;;7.25;0.80;;;;;;;;;;5283404;28;20039;-75
2023/09/28 01:38:58;;;;;;;1.88;0.90;;;;;;;;;;5283908;28;20576;-76
2023/09/28 01:41:29;;;;;;;2.28;1.00;;;;;;;;;;5284108;28;20099;-76
2023/09/28 01:44:00;;;;;;;4.05;0.90;;;;;;;;;;5283091;28;20111;-76
2023/09/28 01:46:31;;;;;;;3.95;1.10;;;;;;;;;;5283588;28;20025;-76
2023/09/28 01:49:03;;;;;;;5.35;1.25;;;;;;;;;;5283949;28;20023;-76
2023/09/28 01:51:34;;;;;;;2.08;1.00;;;;;;;;;;5283059;28;20078;-76
2023/09/28 01:54:05;;;;;;;3.38;1.13;;;;;;;;;;5283583;28;20077;-76
2023/09/28 01:56:37;;;;;;;2.80;1.00;;;;;;;;;;5283452;28;20115;-76
2023/09/28 01:59:08;;;;;;;2.05;0.90;;;;;;;;;;5283147;28;20277;-76
2023/09/28 02:01:40;;;;;;;2.63;1.00;;;;;;;;;;5283553;28;20095;-76
2023/09/28 02:04:11;;;;;;;2.47;1.10;;;;;;;;;;5282707;28;20016;-76
2023/09/28 02:06:42;;;;;;;2.63;0.93;;;;;;;;;;5283349;28;20127;-77
2023/09/28 02:09:17;;;;;;;1.65;0.90;;;;;;;;;;5283135;28;20146;-76
2023/09/28 02:11:48;;;;;;;3.28;1.00;;;;;;;;;;5281999;28;20021;-77
2023/09/28 02:14:20;;;;;;;4.22;0.90;;;;;;;;;;5283535;28;20048;-76
2023/09/28 02:16:51;;;;;;;1.88;0.88;;;;;;;;;;5282791;28;20035;-77
2023/09/28 02:19:22;;;;;;;2.58;1.00;;;;;;;;;;5282492;28;20021;-76
2023/09/28 02:21:53;;;;;;;3.00;0.93;;;;;;;;;;5282744;28;20017;-76
2023/09/28 02:24:24;;;;;;;3.08;1.15;;;;;;;;;;5282933;28;20008;-76
2023/09/28 02:26:56;;;;;;;4.03;1.00;;;;;;;;;;5281925;28;20056;-76
2023/09/28 02:29:27;;;;;;;2.80;1.17;;;;;;;;;;5282733;28;20349;-76
2023/09/28 02:31:58;;;;;;;1.58;0.80;;;;;;;;;;5282473;28;20398;-76
2023/09/28 02:34:32;;;;;;;2.53;0.93;;;;;;;;;;5281928;28;20027;-76
2023/09/28 02:37:04;;;;;;;2.33;1.00;;;;;;;;;;5282702;28;20112;-75
2023/09/28 02:39:38;;;;;;;4.25;1.30;;;;;;;;;;5281734;28;20099;-76
2023/09/28 02:42:09;;;;;;;2.88;1.02;;;;;;;;;;5282857;28;20366;-75
2023/09/28 02:44:40;;;;;;;3.08;1.10;;;;;;;;;;5282556;28;20012;-76
2023/09/28 02:47:11;;;;;;;3.58;0.95;;;;;;;;;;5281580;28;20012;-75
2023/09/28 02:49:43;;;;;;;3.13;1.10;;;;;;;;;;5282617;28;20025;-76
2023/09/28 02:52:14;;;;;;;6.28;1.42;;;;;;;;;;5282470;28;20012;-76
2023/09/28 02:54:46;;;;;;;2.83;1.50;;;;;;;;;;5280994;28;20035;-76
2023/09/28 02:57:18;;;;;;;3.42;1.00;;;;;;;;;;5282494;28;20032;-75
2023/09/28 02:59:49;;;;;;;3.75;1.27;;;;;;;;;;5281628;28;20401;-76
2023/09/28 03:02:20;;;;;;;1.67;1.00;;;;;;;;;;5281700;28;20021;-76
2023/09/28 03:04:52;;;;;;;3.38;1.20;;;;;;;;;;5281666;28;20031;-77
2023/09/28 03:07:23;;;;;;;3.00;1.05;;;;;;;;;;5281338;28;20420;-78
2023/09/28 03:09:54;;;;;;;3.83;1.05;;;;;;;;;;5282090;28;20421;-77
2023/09/28 03:12:25;;;;;;;4.22;1.40;;;;;;;;;;5282411;28;20017;-78
2023/09/28 03:14:57;;;;;;;1.98;1.15;;;;;;;;;;5281035;28;20020;-77
2023/09/28 03:17:28;;;;;;;2.67;1.20;;;;;;;;;;5281863;28;20009;-77
2023/09/28 03:19:59;;;;;;;4.45;1.23;;;;;;;;;;5281661;28;20028;-77
2023/09/28 03:22:30;;;;;;;2.70;1.10;;;;;;;;;;5281080;28;20401;-77
2023/09/28 03:25:06;;;;;;;2.80;1.42;;;;;;;;;;5282067;28;20024;-77
2023/09/28 03:27:38;;;;;;;4.68;1.45;;;;;;;;;;5281966;28;20034;-77
2023/09/28 03:30:11;;;;;;;2.33;1.33;;;;;;;;;;5280979;28;20570;-76
2023/09/28 03:32:42;;;;;;;3.63;1.42;;;;;;;;;;5281834;28;20103;-77
2023/09/28 03:35:14;;;;;;;2.63;1.30;;;;;;;;;;5282009;28;20107;-77
2023/09/28 03:37:46;;;;;;;1.98;1.13;;;;;;;;;;5280896;28;20383;-77
2023/09/28 03:40:17;;;;;;;2.40;1.10;;;;;;;;;;5282189;28;20020;-77
2023/09/28 03:42:49;;;;;;;4.45;1.50;;;;;;;;;;5280595;28;20020;-77
2023/09/28 03:45:21;;;;;;;2.85;1.40;;;;;;;;;;5281932;28;20070;-76
2023/09/28 03:47:53;;;;;;;2.63;1.15;;;;;;;;;;5281449;28;20021;-77
2023/09/28 03:50:24;;;;;;;3.83;1.52;;;;;;;;;;5280834;28;20031;-77
2023/09/28 03:52:55;;;;;;;4.05;1.70;;;;;;;;;;5281634;28;20100;-77
2023/09/28 03:55:27;;;;;;;2.88;1.40;;;;;;;;;;5281550;28;20028;-77
2023/09/28 03:57:59;;;;;;;2.38;1.30;;;;;;;;;;5280599;28;20020;-76
2023/09/28 04:00:31;;;;;;;3.47;1.55;;;;;;;;;;5281530;28;20028;-76
2023/09/28 04:03:02;;;;;;;2.67;1.55;;;;;;;;;;5281489;28;20012;-76
2023/09/28 04:05:33;;;;;;;2.60;1.55;;;;;;;;;;5280731;28;20025;-76
2023/09/28 04:08:05;;;;;;;4.60;1.23;;;;;;;;;;5281371;28;20017;-76
2023/09/28 04:10:37;;;;;;;3.38;1.50;;;;;;;;;;5280554;28;20024;-77
2023/09/28 04:13:08;;;;;;;3.42;1.25;;;;;;;;;;5281224;28;20103;-76
2023/09/28 04:15:39;;;;;;;4.57;1.30;;;;;;;;;;5281300;28;20432;-76
2023/09/28 04:18:10;;;;;;;3.97;1.60;;;;;;;;;;5280438;28;20009;-77
2023/09/28 04:20:42;;;;;;;3.67;1.27;;;;;;;;;;5281257;28;20024;-76
2023/09/28 04:23:13;;;;;;;2.45;1.38;;;;;;;;;;5281145;28;20012;-76
2023/09/28 04:25:45;;;;;;;2.78;1.50;;;;;;;;;;5280170;28;20526;-76
2023/09/28 04:28:16;;;;;;;2.95;1.75;;;;;;;;;;5281607;28;20485;-76
2023/09/28 04:30:47;;;;;;;2.83;1.40;;;;;;;;;;5282443;28;20045;-76
2023/09/28 04:33:18;;;;;;;4.70;1.50;;;;;;;;;;5284624;28;20047;-76
2023/09/28 04:35:50;;;;;;;2.40;1.35;;;;;;;;;;5284575;28;20024;-76
2023/09/28 04:38:22;;;;;;;3.35;1.63;;;;;;;;;;5285276;28;20013;-76
2023/09/28 04:40:53;;;;;;;3.97;1.73;;;;;;;;;;5283828;28;20025;-76
2023/09/28 04:43:24;;;;;;;2.70;1.45;;;;;;;;;;5284990;28;20374;-76
2023/09/28 04:45:56;;;;;;;4.40;2.00;;;;;;;;;;5284004;28;20039;-76
2023/09/28 04:48:27;;;;;;;3.10;1.70;;;;;;;;;;5284778;28;20039;-76
2023/09/28 04:50:58;;;;;;;3.33;1.73;;;;;;;;;;5284887;28;20028;-76
2023/09/28 04:53:29;;;;;;;1.80;1.55;;;;;;;;;;5284074;28;20013;-76
2023/09/28 04:56:08;;;;;;;3.97;2.03;;;;;;;;;;5284382;28;20158;-76
2023/09/28 04:58:39;;;;;;;6.00;2.30;;;;;;;;;;5284621;28;20024;-76
2023/09/28 05:01:11;;;;;;;4.60;1.53;;;;;;;;;;5284060;28;20379;-77
2023/09/28 05:03:42;;;;;;;4.38;1.83;;;;;;;;;;5284479;28;20377;-76
2023/09/28 05:06:13;;;;;;;4.50;1.70;;;;;;;;;;5284541;28;20471;-76
2023/09/28 05:08:44;;;;;;;4.72;1.67;;;;;;;;;;5283200;28;20275;-77
2023/09/28 05:11:15;;;;;;;4.25;1.73;;;;;;;;;;5284924;28;20150;-76
2023/09/28 05:13:47;;;;;;;2.50;1.50;;;;;;;;;;5284078;28;20103;-76
2023/09/28 05:16:19;;;;;;;3.97;1.50;;;;;;;;;;5283578;28;20025;-77
2023/09/28 05:18:50;;;;;;;6.75;2.10;;;;;;;;;;5283604;28;20016;-77
2023/09/28 05:21:22;;;;;;;4.90;2.03;;;;;;;;;;5283497;28;20021;-77
2023/09/28 05:23:54;;;;;;;4.35;1.58;;;;;;;;;;5283800;28;20023;-76
2023/09/28 05:26:25;;;;;;;3.30;1.52;;;;;;;;;;5283800;28;20475;-76
2023/09/28 05:28:57;;;;;;;4.93;1.77;;;;;;;;;;5282923;28;20432;-77
2023/09/28 05:31:28;;;;;;;5.07;1.95;;;;;;;;;;5283676;28;20541;-76
2023/09/28 05:33:59;;;;;;;3.87;1.67;;;;;;;;;;5283841;28;20028;-76
2023/09/28 05:36:30;;;;;;;3.65;1.60;;;;;;;;;;5283134;28;20325;-79
2023/09/28 05:39:03;;;;;;;4.57;1.60;;;;;;;;;;5283938;28;20021;-78
2023/09/28 05:41:34;;;;;;;5.47;1.50;;;;;;;;;;5283527;28;20425;-77
2023/09/28 05:44:07;;;;;;;4.47;1.40;;;;;;;;;;5283336;28;20033;-75
2023/09/28 05:46:39;;;;;;;6.05;1.50;;;;;;;;;;5283877;28;20463;-77
2023/09/28 05:49:10;;;;;;;5.93;1.95;;;;;;;;;;5282728;28;20104;-77
2023/09/28 05:51:42;;;;;;;7.03;1.37;;;;;;;;;;5283617;28;20465;-77
2023/09/28 05:54:13;;;;;;;3.75;1.30;;;;;;;;;;5283282;28;20263;-77
2023/09/28 05:56:44;;;;;;;6.15;1.80;;;;;;;;;;5282320;28;20070;-77
2023/09/28 05:59:15;;;;;;;5.90;1.85;;;;;;;;;;5283607;28;20490;-76
2023/09/28 06:01:47;;;;;;;6.57;1.30;;;;;;;;;;5283247;28;20477;-78
2023/09/28 06:04:18;;;;;;;5.53;1.73;;;;;;;;;;5282795;28;20017;-76
2023/09/28 06:06:50;;;;;;;4.63;1.63;;;;;;;;;;5282763;28;20494;-76
2023/09/28 06:09:22;;;;;;;10.05;1.92;;;;;;;;;;5283404;28;20338;-76
2023/09/28 06:11:57;;;;;;;4.25;1.48;;;;;;;;;;5282177;28;20116;-76
2023/09/28 06:14:28;;;;;;;5.65;1.45;;;;;;;;;;5282999;28;20020;-76
2023/09/28 06:17:00;;;;;;;4.47;1.55;;;;;;;;;;5282895;28;20039;-76
2023/09/28 06:19:31;;;;;;;4.75;1.48;;;;;;;;;;5282130;28;20093;-76
2023/09/28 06:22:05;;;;;;;6.57;2.05;;;;;;;;;;5282877;28;20020;-73
2023/09/28 06:24:37;;;;;;;6.30;1.45;;;;;;;;;;5282380;28;20486;-79
2023/09/28 06:27:08;;;;;;;4.57;1.52;;;;;;;;;;5282659;28;20027;-79
2023/09/28 06:29:39;;;;;;;4.60;1.25;;;;;;;;;;5282873;28;20008;-79
2023/09/28 06:32:10;;;;;;;7.73;1.43;;;;;;;;;;5282057;28;20078;-80
2023/09/28 06:34:42;;;;;;;5.88;1.50;;;;;;;;;;5282676;28;20274;-80
2023/09/28 06:37:13;;;;;;;5.35;1.30;;;;;;;;;;5282729;28;20024;-79
2023/09/28 06:39:44;;;;;;;5.80;1.23;;;;;;;;;;5281493;28;20023;-79
2023/09/28 06:42:15;;;;;;;6.00;1.15;;;;;;;;;;5283165;28;20024;-80
2023/09/28 06:44:47;;;;;;;8.17;2.10;;;;;;;;;;5282021;28;20111;-79
2023/09/28 06:47:18;;;;;;;10.48;2.10;;;;;;;;;;5282261;28;20251;-79
2023/09/28 06:49:49;;;;;;;8.30;1.63;;;;;;;;;;5282137;28;20022;-80
2023/09/28 06:52:21;;;;;;;8.93;1.23;;;;;;;;;;5282031;28;20266;-80
2023/09/28 06:54:52;;;;;;;8.80;1.98;;;;;;;;;;5281207;28;20052;-81
2023/09/28 06:57:23;;;;;;;9.48;1.70;;;;;;;;;;5282016;28;20371;-81
2023/09/28 06:59:55;;;;;;;9.00;1.50;;;;;;;;;;5281645;28;20495;-79
2023/09/28 07:02:26;;;;;;;8.13;1.43;;;;;;;;;;5281481;28;20278;-79
2023/09/28 07:04:57;;;;;;;10.10;1.77;;;;;;;;;;5281779;28;20298;-78
2023/09/28 07:07:30;;;;;;;4.47;1.08;;;;;;;;;;5280845;28;20267;-80
2023/09/28 07:10:02;;;;;;;9.55;1.63;;;;;;;;;;5282073;28;20017;-79
2023/09/28 07:12:33;;;;;;;7.88;1.17;;;;;;;;;;5281527;28;20123;-82
2023/09/28 07:15:04;;;;;;;9.35;1.52;;;;;;;;;;5280293;28;20498;-81
2023/09/28 07:17:36;;;;;;;8.50;1.65;;;;;;;;;;5281725;28;20073;-82
2023/09/28 07:20:07;;;;;;;8.98;1.50;;;;;;;;;;5282017;28;20024;-83
2023/09/28 07:22:39;;;;;;;8.43;1.40;;;;;;;;;;5281294;28;20077;-81
2023/09/28 07:25:10;;;;;;;11.98;1.80;;;;;;;;;;5281895;28;20052;-80
2023/09/28 07:27:42;;;;;;;10.57;1.70;;;;;;;;;;5280075;28;20475;-81
2023/09/28 07:30:15;;;;;;;14.90;1.95;;;;;;;;;;5281626;28;20131;-81
2023/09/28 07:32:47;;;;;;;16.17;2.95;;;;;;;;;;5281851;28;20024;-83
2023/09/28 07:35:19;;;;;;;9.73;1.95;;;;;;;;;;5281445;28;20044;-83
2023/09/28 07:37:50;;;;;;;10.07;2.00;;;;;;;;;;5281554;28;20099;-79
2023/09/28 07:40:24;;;;;;;10.97;1.90;;;;;;;;;;5282043;28;20379;-80
2023/09/28 07:42:56;;;;;;;10.43;1.92;;;;;;;;;;5279707;28;20282;-81
2023/09/28 07:45:27;;;;;;;14.43;2.92;;;;;;;;;;5279436;28;20012;-80
2023/09/28 07:47:58;;;;;;;9.93;1.77;;;;;;;;;;5279488;28;20043;-80
2023/09/28 07:50:29;;;;;;;11.17;1.70;;;;;;;;;;5278984;28;20270;-81
2023/09/28 07:53:00;;;;;;;16.43;1.87;;;;;;;;;;5279372;28;20297;-81
2023/09/28 07:55:31;;;;;;;13.80;1.80;;;;;;;;;;5279544;28;20768;-81
2023/09/28 07:58:03;;;;;;;13.23;1.80;;;;;;;;;;5279451;28;20371;-80
2023/09/28 08:00:35;;;;;;;13.13;1.90;;;;;;;;;;5281708;28;20027;-80
2023/09/28 08:03:06;;;;;;;8.88;1.15;;;;;;;;;;5280935;28;20153;-81
2023/09/28 08:05:37;;;;;;;11.73;1.67;;;;;;;;;;5284908;28;20055;-82
2023/09/28 08:08:08;;;;;;;12.48;2.17;;;;;;;;;;5285724;28;20095;-81
2023/09/28 08:10:40;;;;;;;14.50;2.07;;;;;;;;;;5285293;28;20466;-81
2023/09/28 08:13:11;;;;;;;17.98;2.65;;;;;;;;;;5285718;28;20277;-82
2023/09/28 08:15:44;;;;;;;11.07;2.22;;;;;;;;;;5285652;28;20455;-82
2023/09/28 08:18:15;;;;;;;13.82;1.90;;;;;;;;;;5285041;28;20062;-81
2023/09/28 08:20:47;;;;;;;13.60;2.20;;;;;;;;;;5285593;28;20050;-82
2023/09/28 08:23:18;;;;;;;12.00;2.35;;;;;;;;;;5285627;28;20366;-82
2023/09/28 08:25:50;;;;;;;15.70;1.77;;;;;;;;;;5284358;28;20017;-82
2023/09/28 08:28:22;;;;;;;19.27;2.50;;;;;;;;;;5285681;28;20013;-81
2023/09/28 08:30:54;;;;;;;14.43;2.47;;;;;;;;;;5284011;28;20059;-82
2023/09/28 08:33:25;;;;;;;15.18;2.65;;;;;;;;;;5285361;28;20454;-82
2023/09/28 08:35:56;;;;;;;15.32;2.45;;;;;;;;;;5285185;28;20094;-82
2023/09/28 08:38:27;;;;;;;15.57;2.57;;;;;;;;;;5284435;28;20338;-82
2023/09/28 08:41:02;;;;;;;14.60;2.28;;;;;;;;;;5285420;28;20271;-81
2023/09/28 08:43:39;;;;;;;13.45;2.15;;;;;;;;;;5284833;28;20036;-82
2023/09/28 08:46:12;;;;;;;13.70;2.10;;;;;;;;;;5284493;28;20430;-81
2023/09/28 08:48:46;;;;;;;15.10;2.78;;;;;;;;;;5284941;28;20511;-81
2023/09/28 08:51:18;;;;;;;11.88;2.10;;;;;;;;;;5285444;28;20375;-82
2023/09/28 08:53:50;;;;;;;15.45;2.78;;;;;;;;;;5283649;28;20013;-82
2023/09/28 08:56:21;;;;;;;9.80;1.50;;;;;;;;;;5285219;28;20113;-82
2023/09/28 08:58:54;;;;;;;14.18;2.50;;;;;;;;;;5284641;28;20451;-83
2023/09/28 09:01:27;;;;;;;26.67;2.58;;;;;;;;;;5284049;28;20471;-82
2023/09/28 09:03:59;;;;;;;12.18;2.00;;;;;;;;;;5284681;28;20096;-82
2023/09/28 09:06:31;;;;;;;12.45;2.53;;;;;;;;;;5283949;28;20171;-83
2023/09/28 09:09:06;;;;;;;15.55;2.72;;;;;;;;;;5284758;28;20336;-82
2023/09/28 09:11:38;;;;;;;14.20;2.72;;;;;;;;;;5284630;28;20364;-82
2023/09/28 09:14:09;;;;;;;16.00;2.67;;;;;;;;;;5283693;28;20027;-82
2023/09/28 09:16:41;;;;;;;11.87;2.73;;;;;;;;;;5283667;28;20391;-82
2023/09/28 09:19:14;;;;;;;13.98;2.28;;;;;;;;;;5284502;28;20310;-82
2023/09/28 09:21:45;;;;;;;20.42;2.90;;;;;;;;;;5283430;28;20025;-83
2023/09/28 09:24:19;;;;;;;11.65;1.95;;;;;;;;;;5284659;28;20016;-82
2023/09/28 09:26:52;;;;;;;15.77;2.80;;;;;;;;;;5283864;28;20021;-82
2023/09/28 09:29:24;;;;;;;9.90;1.92;;;;;;;;;;5283269;28;20017;-82
2023/09/28 09:31:55;;;;;;;16.85;2.67;;;;;;;;;;5283850;28;20052;-81
2023/09/28 09:34:26;;;;;;;12.57;1.95;;;;;;;;;;5283148;28;20048;-81
2023/09/28 09:36:58;;;;;;;12.50;1.73;;;;;;;;;;5284141;28;20028;-83
2023/09/28 09:39:30;;;;;;;14.65;2.25;;;;;;;;;;5284112;28;20269;-82
2023/09/28 09:42:02;;;;;;;12.85;2.03;;;;;;;;;;5283325;28;20036;-83
2023/09/28 09:44:34;;;;;;;10.35;1.83;;;;;;;;;;5284181;28;20387;-83
2023/09/28 09:47:05;;;;;;;15.38;2.47;;;;;;;;;;5284251;28;20023;-83
2023/09/28 09:49:38;;;;;;;12.80;1.97;;;;;;;;;;5283267;28;20021;-83
2023/09/28 09:52:10;;;;;;;10.43;1.20;;;;;;;;;;5283804;28;20757;-84
2023/09/28 09:54:42;;;;;;;10.52;1.52;;;;;;;;;;5284133;28;20025;-83
2023/09/28 09:57:19;;;;;;;12.48;2.33;;;;;;;;;;5282882;28;20107;-83
2023/09/28 09:59:53;;;;;;;13.68;2.35;;;;;;;;;;5283639;28;20051;-83
2023/09/28 10:02:25;;;;;;;12.38;2.10;;;;;;;;;;5282719;28;20484;-83
2023/09/28 10:04:59;;;;;;;20.42;3.40;;;;;;;;;;5283483;28;20020;-82
2023/09/28 10:07:33;;;;;;;14.43;2.13;;;;;;;;;;5283720;28;20520;-83
2023/09/28 10:10:05;;;;;;;14.70;2.58;;;;;;;;;;5282894;28;20036;-84
2023/09/28 10:12:37;;;;;;;14.50;1.90;;;;;;;;;;5283587;28;20107;-81
2023/09/28 10:15:09;;;;;;;8.85;1.88;;;;;;;;;;5283187;28;20021;-83
2023/09/28 10:17:40;;;;;;;14.57;2.15;;;;;;;;;;5282727;28;20433;-81
2023/09/28 10:20:13;;;;;;;12.40;1.42;;;;;;;;;;5283250;28;20040;-83
2023/09/28 10:22:45;;;;;;;14.60;2.22;;;;;;;;;;5283143;28;20016;-82
2023/09/28 10:25:16;;;;;;;10.63;1.85;;;;;;;;;;5282879;28;20625;-81
2023/09/28 10:27:47;;;;;;;10.07;1.67;;;;;;;;;;5281713;28;20051;-83
2023/09/28 10:30:19;;;;;;;9.17;1.30;;;;;;;;;;5283215;28;20055;-84
2023/09/28 10:32:51;;;;;;;12.68;1.70;;;;;;;;;;5281865;28;20361;-82
2023/09/28 10:35:24;;;;;;;8.23;1.52;;;;;;;;;;5282938;28;20126;-82
2023/09/28 10:38:17;;;;;;;10.48;1.63;;;;;;;;;;5283309;28;20025;-81
2023/09/28 10:41:07;;;;;;;14.15;1.83;;;;;;;;;;5283717;28;20458;-81
2023/09/28 10:43:43;;;;;;;8.93;1.63;;;;;;;;;;5283203;28;20459;-80
2023/09/28 10:46:14;;;;;;;13.50;1.80;;;;;;;;;;5281821;28;20020;-81
2023/09/28 10:48:46;;;;;;;10.70;1.15;;;;;;;;;;5282602;28;20428;-82
2023/09/28 10:51:20;;;;;;;8.20;1.27;;;;;;;;;;5282874;28;20036;-81
2023/09/28 10:53:52;;;;;;;11.77;1.48;;;;;;;;;;5281260;28;20021;-80
2023/09/28 10:56:24;;;;;;;10.53;1.50;;;;;;;;;;5282625;28;20498;-80
2023/09/28 10:58:56;;;;;;;12.55;1.92;;;;;;;;;;5281124;28;20349;-81
2023/09/28 11:01:27;;;;;;;10.07;1.38;;;;;;;;;;5282492;28;20494;-78
2023/09/28 11:03:59;;;;;;;14.23;2.03;;;;;;;;;;5282446;28;20013;-80
2023/09/28 11:06:30;;;;;;;11.82;2.13;;;;;;;;;;5266369;28;20028;-80
2023/09/28 11:09:02;;;;;;;8.65;1.58;;;;;;;;;;5279141;28;20028;-79
2023/09/28 11:11:33;;;;;;;16.17;2.53;;;;;;;;;;5280175;28;20104;-79
2023/09/28 11:14:05;;;;;;;11.52;1.75;;;;;;;;;;5279858;28;20519;-80
2023/09/28 11:16:38;;;;;;;11.73;2.10;;;;;;;;;;5281003;28;20115;-78
2023/09/28 11:19:10;;;;;;;11.68;2.08;;;;;;;;;;5280683;28;20040;-80
2023/09/28 11:21:42;;;;;;;9.95;1.42;;;;;;;;;;5279231;28;20074;-80
2023/09/28 11:24:13;;;;;;;13.90;1.67;;;;;;;;;;5280447;28;20037;-80
2023/09/28 11:26:44;;;;;;;10.77;1.57;;;;;;;;;;5280138;28;20028;-82
2023/09/28 11:29:15;;;;;;;10.40;1.42;;;;;;;;;;5280505;28;20395;-80
2023/09/28 11:31:50;;;;;;;11.25;2.08;;;;;;;;;;5280364;28;20475;-81
2023/09/28 11:34:28;;;;;;;10.32;1.15;;;;;;;;;;5280352;28;20048;-81
2023/09/28 11:37:00;;;;;;;7.82;1.48;;;;;;;;;;5280701;28;20447;-81
2023/09/28 11:39:31;;;;;;;9.52;1.23;;;;;;;;;;5279896;28;20111;-80
2023/09/28 11:42:03;;;;;;;12.73;1.60;;;;;;;;;;5278264;28;20020;-82
2023/09/28 11:44:34;;;;;;;10.18;1.52;;;;;;;;;;5278900;28;20260;-82
2023/09/28 11:47:06;;;;;;;8.50;1.00;;;;;;;;;;5279150;28;20091;-82
2023/09/28 11:49:40;;;;;;;10.02;1.20;;;;;;;;;;5271389;28;20025;-82
2023/09/28 11:52:13;;;;;;;11.43;1.80;;;;;;;;;;5257812;28;20260;-82
2023/09/28 11:54:45;;;;;;;11.38;1.50;;;;;;;;;;5264115;28;20020;-82
2023/09/28 11:57:18;;;;;;;10.38;1.60;;;;;;;;;;5279898;28;20032;-82
2023/09/28 11:59:49;;;;;;;9.25;1.67;;;;;;;;;;5280402;28;20091;-82
2023/09/28 12:02:20;;;;;;;11.00;1.85;;;;;;;;;;5280378;28;20108;-82
2023/09/28 12:04:51;;;;;;;5.43;1.17;;;;;;;;;;5279889;28;20017;-82
2023/09/28 12:07:23;;;;;;;9.13;1.30;;;;;;;;;;5281204;28;20024;-82
2023/09/28 12:09:54;;;;;;;11.45;1.50;;;;;;;;;;5279261;28;20267;-82
2023/09/28 12:12:25;;;;;;;9.13;1.10;;;;;;;;;;5280895;28;20100;-82
2023/09/28 12:14:56;;;;;;;14.23;2.03;;;;;;;;;;5280805;28;20028;-79
2023/09/28 12:17:28;;;;;;;8.75;1.17;;;;;;;;;;5279698;28;20298;-79
2023/09/28 12:19:59;;;;;;;12.00;1.60;;;;;;;;;;5279574;28;20013;-79
2023/09/28 12:22:31;;;;;;;11.67;1.77;;;;;;;;;;5280523;28;20459;-79
2023/09/28 12:25:04;;;;;;;10.18;1.17;;;;;;;;;;5279909;28;20278;-80
2023/09/28 12:27:36;;;;;;;8.85;1.10;;;;;;;;;;5280459;28;20417;-80
2023/09/28 12:30:07;;;;;;;8.82;1.15;;;;;;;;;;5278945;28;20048;-76
2023/09/28 12:32:39;;;;;;;10.05;1.77;;;;;;;;;;5280626;28;20044;-79
2023/09/28 12:35:10;;;;;;;10.40;1.43;;;;;;;;;;5280074;28;20100;-81
2023/09/28 12:37:41;;;;;;;7.87;1.30;;;;;;;;;;5278173;28;20293;-82
2023/09/28 12:40:13;;;;;;;10.50;1.30;;;;;;;;;;5279431;28;20266;-82
2023/09/28 12:42:44;;;;;;;6.57;1.30;;;;;;;;;;5279541;28;20279;-82
2023/09/28 12:45:15;;;;;;;9.80;1.23;;;;;;;;;;5278866;28;20107;-82
2023/09/28 12:47:47;;;;;;;8.48;1.10;;;;;;;;;;5278847;28;20475;-81
2023/09/28 12:50:18;;;;;;;8.95;1.00;;;;;;;;;;5278123;28;20062;-81
2023/09/28 12:52:49;;;;;;;14.48;1.38;;;;;;;;;;5280529;28;20023;-82
2023/09/28 12:55:21;;;;;;;10.63;1.53;;;;;;;;;;5282689;28;20367;-82
2023/09/28 12:57:56;;;;;;;9.35;1.42;;;;;;;;;;5281622;28;20340;-82
2023/09/28 13:00:29;;;;;;;5.35;0.93;;;;;;;;;;5281536;28;20508;-82
2023/09/28 13:03:02;;;;;;;11.85;1.30;;;;;;;;;;5281715;28;20017;-82
2023/09/28 13:05:37;;;;;;;9.38;1.38;;;;;;;;;;5282276;28;20028;-81
2023/09/28 13:08:12;;;;;;;10.43;1.85;;;;;;;;;;5283368;28;20104;-83
2023/09/28 13:10:43;;;;;;;10.82;1.45;;;;;;;;;;5283797;28;20026;-82
2023/09/28 13:13:15;;;;;;;9.45;1.58;;;;;;;;;;5282840;28;20429;-82
2023/09/28 13:15:46;;;;;;;9.85;1.70;;;;;;;;;;5284127;28;20379;-83
2023/09/28 13:18:18;;;;;;;9.60;1.80;;;;;;;;;;5284793;28;20021;-82
2023/09/28 13:20:52;;;;;;;12.68;1.67;;;;;;;;;;5283191;28;20332;-82
2023/09/28 13:23:24;;;;;;;6.72;0.80;;;;;;;;;;5284369;28;20028;-81
2023/09/28 13:25:55;;;;;;;11.55;1.92;;;;;;;;;;5283637;28;20021;-82
2023/09/28 13:28:26;;;;;;;10.40;1.40;;;;;;;;;;5284009;28;20074;-82
2023/09/28 13:30:57;;;;;;;11.73;1.80;;;;;;;;;;5283919;28;20048;-82
2023/09/28 13:33:29;;;;;;;10.53;1.83;;;;;;;;;;5283429;28;20078;-81
2023/09/28 13:36:02;;;;;;;15.40;1.77;;;;;;;;;;5283993;28;20295;-80
2023/09/28 13:38:34;;;;;;;7.63;1.13;;;;;;;;;;5284076;28;20254;-81
2023/09/28 13:41:05;;;;;;;11.60;1.33;;;;;;;;;;5283014;28;20070;-81
2023/09/28 13:43:38;;;;;;;11.97;1.67;;;;;;;;;;5283680;28;20028;-81
2023/09/28 13:46:10;;;;;;;8.80;1.50;;;;;;;;;;5283969;28;20262;-82
2023/09/28 13:48:41;;;;;;;8.05;1.42;;;;;;;;;;5282551;28;20524;-81
2023/09/28 13:51:13;;;;;;;5.57;0.98;;;;;;;;;;5281680;28;20047;-81
2023/09/28 13:53:44;;;;;;;8.70;1.33;;;;;;;;;;5281243;28;20378;-79
2023/09/28 13:56:18;;;;;;;8.67;1.50;;;;;;;;;;5281148;28;20024;-81
2023/09/28 13:58:50;;;;;;;9.20;1.10;;;;;;;;;;5281241;28;20051;-80
2023/09/28 14:01:21;;;;;;;9.00;0.85;;;;;;;;;;5281412;28;20016;-80
2023/09/28 14:03:52;;;;;;;7.43;1.45;;;;;;;;;;5280433;28;20023;-80
2023/09/28 14:06:23;;;;;;;9.73;1.37;;;;;;;;;;5283367;28;20023;-80
2023/09/28 14:08:57;;;;;;;9.67;1.10;;;;;;;;;;5282882;28;20286;-81
2023/09/28 14:11:28;;;;;;;10.05;1.55;;;;;;;;;;5283571;28;20292;-81
2023/09/28 14:13:59;;;;;;;6.32;1.05;;;;;;;;;;5284993;28;20016;-81
2023/09/28 14:16:33;;;;;;;8.17;1.13;;;;;;;;;;5285327;28;20505;-81
2023/09/28 14:19:08;;;;;;;11.35;1.58;;;;;;;;;;5286326;28;20278;-82
2023/09/28 14:21:39;;;;;;;4.97;0.80;;;;;;;;;;5289519;28;20017;-82
2023/09/28 14:24:11;;;;;;;6.53;1.27;;;;;;;;;;5288529;28;20023;-82
2023/09/28 14:26:43;;;;;;;6.07;1.00;;;;;;;;;;5290753;28;20263;-82
2023/09/28 14:29:15;;;;;;;6.93;1.35;;;;;;;;;;5285573;28;20486;-82
2023/09/28 14:31:46;;;;;;;11.77;1.90;;;;;;;;;;5285637;28;20060;-82
2023/09/28 14:34:17;;;;;;;8.27;1.07;;;;;;;;;;5288490;28;20123;-81
2023/09/28 14:36:49;;;;;;;6.30;1.50;;;;;;;;;;5287257;28;20297;-82
2023/09/28 14:39:20;;;;;;;7.75;1.50;;;;;;;;;;5288846;28;20285;-81
2023/09/28 14:41:52;;;;;;;7.05;1.00;;;;;;;;;;5270379;28;20021;-80
2023/09/28 14:44:23;;;;;;;6.63;1.00;;;;;;;;;;5267608;28;20535;-81
2023/09/28 14:46:54;;;;;;;10.05;1.13;;;;;;;;;;5267408;28;20380;-81
2023/09/28 14:49:26;;;;;;;8.57;1.60;;;;;;;;;;5268475;28;20021;-81
2023/09/28 14:51:57;;;;;;;7.45;1.70;;;;;;;;;;5266746;28;20491;-82
2023/09/28 14:54:28;;;;;;;6.47;1.23;;;;;;;;;;5268382;28;20024;-81
2023/09/28 14:56:59;;;;;;;5.38;1.00;;;;;;;;;;5265086;28;20330;-81
2023/09/28 14:59:31;;;;;;;30.53;2.40;;;;;;;;;;5265574;28;20013;-82
2023/09/28 15:02:02;;;;;;;7.37;1.93;;;;;;;;;;5264349;28;20359;-83
2023/09/28 15:04:33;;;;;;;8.80;1.38;;;;;;;;;;5261488;28;20267;-85
2023/09/28 15:07:05;;;;;;;8.98;1.30;;;;;;;;;;5261018;28;20108;-83